sensor_id;sensor_type;location;lat;lon;timestamp;P1;durP1;ratioP1;P2;durP2;ratioP2
18322;SDS011;9287;49.456;11.064;2022-07-05T00:01:36;0.30;;;0.30;;
18322;SDS011;9287;49.456;11.064;2022-07-05T00:04:04;0.40;;;0.35;;
18322;SDS011;9287;49.456;11.064;2022-07-05T00:06:31;0.40;;;0.30;;
18322;SDS011;9287;49.456;11.064;2022-07-05T00:08:59;0.68;;;0.40;;
18322;SDS011;9287;49.456;11.064;2022-07-05T00:11:27;0.30;;;0.30;;
18322;SDS011;9287;49.456;11.064;2022-07-05T00:13:55;1.23;;;0.30;;
18322;SDS011;9287;49.456;11.064;2022-07-05T00:16:22;0.57;;;0.30;;
18322;SDS011;9287;49.456;11.064;2022-07-05T00:18:51;1.15;;;0.30;;
18322;SDS011;9287;49.456;11.064;2022-07-05T00:21:19;0.50;;;0.40;;
18322;SDS011;9287;49.456;11.064;2022-07-05T00:23:47;1.88;;;0.43;;
18322;SDS011;9287;49.456;11.064;2022-07-05T00:26:15;3.03;;;0.30;;
18322;SDS011;9287;49.456;11.064;2022-07-05T00:28:42;0.50;;;0.30;;
18322;SDS011;9287;49.456;11.064;2022-07-05T00:31:10;0.55;;;0.40;;
18322;SDS011;9287;49.456;11.064;2022-07-05T00:33:38;0.40;;;0.40;;
18322;SDS011;9287;49.456;11.064;2022-07-05T00:36:07;0.75;;;0.30;;
18322;SDS011;9287;49.456;11.064;2022-07-05T00:38:35;0.50;;;0.35;;
18322;SDS011;9287;49.456;11.064;2022-07-05T00:41:02;2.30;;;0.38;;
18322;SDS011;9287;49.456;11.064;2022-07-05T00:43:30;1.00;;;0.40;;
18322;SDS011;9287;49.456;11.064;2022-07-05T00:45:58;0.65;;;0.40;;
18322;SDS011;9287;49.456;11.064;2022-07-05T00:48:26;0.40;;;0.30;;
18322;SDS011;9287;49.456;11.064;2022-07-05T00:50:54;0.73;;;0.40;;
18322;SDS011;9287;49.456;11.064;2022-07-05T00:53:23;0.45;;;0.40;;
18322;SDS011;9287;49.456;11.064;2022-07-05T00:55:51;0.40;;;0.40;;
18322;SDS011;9287;49.456;11.064;2022-07-05T00:58:19;0.45;;;0.30;;
18322;SDS011;9287;49.456;11.064;2022-07-05T01:00:46;0.50;;;0.50;;
18322;SDS011;9287;49.456;11.064;2022-07-05T01:03:14;0.47;;;0.47;;
18322;SDS011;9287;49.456;11.064;2022-07-05T01:05:42;0.55;;;0.43;;
18322;SDS011;9287;49.456;11.064;2022-07-05T01:08:10;1.02;;;0.50;;
18322;SDS011;9287;49.456;11.064;2022-07-05T01:10:41;1.73;;;0.50;;
18322;SDS011;9287;49.456;11.064;2022-07-05T01:13:09;0.70;;;0.50;;
18322;SDS011;9287;49.456;11.064;2022-07-05T01:15:37;0.85;;;0.40;;
18322;SDS011;9287;49.456;11.064;2022-07-05T01:18:05;2.20;;;0.43;;
18322;SDS011;9287;49.456;11.064;2022-07-05T01:20:33;0.60;;;0.50;;
18322;SDS011;9287;49.456;11.064;2022-07-05T01:23:02;1.38;;;0.50;;
18322;SDS011;9287;49.456;11.064;2022-07-05T01:25:31;0.60;;;0.47;;
18322;SDS011;9287;49.456;11.064;2022-07-05T01:27:59;1.48;;;0.40;;
18322;SDS011;9287;49.456;11.064;2022-07-05T01:30:28;0.40;;;0.40;;
18322;SDS011;9287;49.456;11.064;2022-07-05T01:32:57;0.95;;;0.40;;
18322;SDS011;9287;49.456;11.064;2022-07-05T01:35:25;0.80;;;0.50;;
18322;SDS011;9287;49.456;11.064;2022-07-05T01:37:53;1.90;;;0.70;;
18322;SDS011;9287;49.456;11.064;2022-07-05T01:40:22;1.60;;;0.50;;
18322;SDS011;9287;49.456;11.064;2022-07-05T01:42:50;2.38;;;0.50;;
18322;SDS011;9287;49.456;11.064;2022-07-05T01:45:18;1.08;;;0.50;;
18322;SDS011;9287;49.456;11.064;2022-07-05T01:48:00;0.45;;;0.40;;
18322;SDS011;9287;49.456;11.064;2022-07-05T01:50:29;0.40;;;0.40;;
18322;SDS011;9287;49.456;11.064;2022-07-05T01:53:00;0.43;;;0.40;;
18322;SDS011;9287;49.456;11.064;2022-07-05T01:55:31;0.75;;;0.52;;
18322;SDS011;9287;49.456;11.064;2022-07-05T01:57:59;0.77;;;0.40;;
18322;SDS011;9287;49.456;11.064;2022-07-05T02:03:56;0.80;;;0.50;;
18322;SDS011;9287;49.456;11.064;2022-07-05T02:06:24;1.23;;;0.43;;
18322;SDS011;9287;49.456;11.064;2022-07-05T02:08:52;1.75;;;0.70;;
18322;SDS011;9287;49.456;11.064;2022-07-05T02:11:21;0.57;;;0.50;;
18322;SDS011;9287;49.456;11.064;2022-07-05T02:13:49;1.75;;;0.50;;
18322;SDS011;9287;49.456;11.064;2022-07-05T02:16:17;1.38;;;0.60;;
18322;SDS011;9287;49.456;11.064;2022-07-05T02:18:45;0.50;;;0.50;;
18322;SDS011;9287;49.456;11.064;2022-07-05T02:21:13;0.93;;;0.57;;
18322;SDS011;9287;49.456;11.064;2022-07-05T02:23:40;0.65;;;0.50;;
18322;SDS011;9287;49.456;11.064;2022-07-05T02:26:08;0.55;;;0.50;;
18322;SDS011;9287;49.456;11.064;2022-07-05T02:28:38;0.73;;;0.60;;
18322;SDS011;9287;49.456;11.064;2022-07-05T02:31:06;1.92;;;0.50;;
18322;SDS011;9287;49.456;11.064;2022-07-05T02:33:34;1.88;;;0.68;;
18322;SDS011;9287;49.456;11.064;2022-07-05T02:36:06;0.73;;;0.60;;
18322;SDS011;9287;49.456;11.064;2022-07-05T02:38:35;0.77;;;0.60;;
18322;SDS011;9287;49.456;11.064;2022-07-05T02:41:04;1.08;;;0.60;;
18322;SDS011;9287;49.456;11.064;2022-07-05T02:43:33;0.63;;;0.63;;
18322;SDS011;9287;49.456;11.064;2022-07-05T02:46:03;2.00;;;0.65;;
18322;SDS011;9287;49.456;11.064;2022-07-05T02:48:32;0.57;;;0.52;;
18322;SDS011;9287;49.456;11.064;2022-07-05T02:51:01;0.73;;;0.50;;
18322;SDS011;9287;49.456;11.064;2022-07-05T02:53:29;0.87;;;0.53;;
18322;SDS011;9287;49.456;11.064;2022-07-05T02:55:58;2.05;;;0.63;;
18322;SDS011;9287;49.456;11.064;2022-07-05T02:58:25;0.60;;;0.60;;
18322;SDS011;9287;49.456;11.064;2022-07-05T03:00:53;3.42;;;0.70;;
18322;SDS011;9287;49.456;11.064;2022-07-05T03:03:22;0.83;;;0.60;;
18322;SDS011;9287;49.456;11.064;2022-07-05T03:05:50;0.95;;;0.70;;
18322;SDS011;9287;49.456;11.064;2022-07-05T03:08:18;2.27;;;0.70;;
18322;SDS011;9287;49.456;11.064;2022-07-05T03:10:46;0.70;;;0.65;;
18322;SDS011;9287;49.456;11.064;2022-07-05T03:13:14;1.45;;;0.68;;
18322;SDS011;9287;49.456;11.064;2022-07-05T03:15:42;2.83;;;0.70;;
18322;SDS011;9287;49.456;11.064;2022-07-05T03:18:09;0.80;;;0.60;;
18322;SDS011;9287;49.456;11.064;2022-07-05T03:20:39;4.30;;;0.70;;
18322;SDS011;9287;49.456;11.064;2022-07-05T03:23:06;2.00;;;0.63;;
18322;SDS011;9287;49.456;11.064;2022-07-05T03:25:34;1.40;;;0.70;;
18322;SDS011;9287;49.456;11.064;2022-07-05T03:28:02;0.70;;;0.70;;
18322;SDS011;9287;49.456;11.064;2022-07-05T03:30:30;0.70;;;0.70;;
18322;SDS011;9287;49.456;11.064;2022-07-05T03:32:58;1.07;;;0.70;;
18322;SDS011;9287;49.456;11.064;2022-07-05T03:35:26;1.37;;;0.60;;
18322;SDS011;9287;49.456;11.064;2022-07-05T03:37:58;1.17;;;0.60;;
18322;SDS011;9287;49.456;11.064;2022-07-05T03:40:26;0.80;;;0.80;;
18322;SDS011;9287;49.456;11.064;2022-07-05T03:42:54;2.10;;;0.70;;
18322;SDS011;9287;49.456;11.064;2022-07-05T03:45:21;2.17;;;0.70;;
18322;SDS011;9287;49.456;11.064;2022-07-05T03:47:49;0.70;;;0.70;;
18322;SDS011;9287;49.456;11.064;2022-07-05T03:50:17;2.77;;;0.77;;
18322;SDS011;9287;49.456;11.064;2022-07-05T03:52:45;0.90;;;0.80;;
18322;SDS011;9287;49.456;11.064;2022-07-05T03:55:14;0.70;;;0.70;;
18322;SDS011;9287;49.456;11.064;2022-07-05T03:57:42;0.73;;;0.70;;
18322;SDS011;9287;49.456;11.064;2022-07-05T04:00:10;0.80;;;0.70;;
18322;SDS011;9287;49.456;11.064;2022-07-05T04:02:39;2.53;;;0.70;;
18322;SDS011;9287;49.456;11.064;2022-07-05T04:05:07;1.00;;;0.70;;
18322;SDS011;9287;49.456;11.064;2022-07-05T04:07:37;1.47;;;0.70;;
18322;SDS011;9287;49.456;11.064;2022-07-05T04:10:15;1.03;;;0.60;;
18322;SDS011;9287;49.456;11.064;2022-07-05T04:12:43;3.03;;;0.90;;
18322;SDS011;9287;49.456;11.064;2022-07-05T04:15:11;0.70;;;0.70;;
18322;SDS011;9287;49.456;11.064;2022-07-05T04:17:46;1.10;;;0.70;;
18322;SDS011;9287;49.456;11.064;2022-07-05T04:20:14;0.73;;;0.73;;
18322;SDS011;9287;49.456;11.064;2022-07-05T04:22:45;0.73;;;0.73;;
18322;SDS011;9287;49.456;11.064;2022-07-05T04:25:12;1.00;;;0.90;;
18322;SDS011;9287;49.456;11.064;2022-07-05T04:27:49;0.70;;;0.70;;
18322;SDS011;9287;49.456;11.064;2022-07-05T04:30:18;1.07;;;0.80;;
18322;SDS011;9287;49.456;11.064;2022-07-05T04:32:48;1.00;;;0.80;;
18322;SDS011;9287;49.456;11.064;2022-07-05T04:35:16;0.80;;;0.80;;
18322;SDS011;9287;49.456;11.064;2022-07-05T04:37:44;0.70;;;0.70;;
18322;SDS011;9287;49.456;11.064;2022-07-05T04:40:13;0.80;;;0.80;;
18322;SDS011;9287;49.456;11.064;2022-07-05T04:42:41;1.20;;;0.80;;
18322;SDS011;9287;49.456;11.064;2022-07-05T04:45:11;2.03;;;0.70;;
18322;SDS011;9287;49.456;11.064;2022-07-05T04:47:38;1.67;;;0.70;;
18322;SDS011;9287;49.456;11.064;2022-07-05T04:50:06;2.42;;;0.80;;
18322;SDS011;9287;49.456;11.064;2022-07-05T04:52:35;1.35;;;0.80;;
18322;SDS011;9287;49.456;11.064;2022-07-05T04:55:03;0.70;;;0.70;;
18322;SDS011;9287;49.456;11.064;2022-07-05T04:57:36;0.70;;;0.70;;
18322;SDS011;9287;49.456;11.064;2022-07-05T05:00:05;1.10;;;0.98;;
18322;SDS011;9287;49.456;11.064;2022-07-05T05:02:35;1.45;;;0.80;;
18322;SDS011;9287;49.456;11.064;2022-07-05T05:05:03;2.97;;;1.05;;
18322;SDS011;9287;49.456;11.064;2022-07-05T05:07:31;2.95;;;0.90;;
18322;SDS011;9287;49.456;11.064;2022-07-05T05:10:03;2.15;;;0.90;;
18322;SDS011;9287;49.456;11.064;2022-07-05T05:12:32;1.92;;;0.80;;
18322;SDS011;9287;49.456;11.064;2022-07-05T05:15:00;3.05;;;0.73;;
18322;SDS011;9287;49.456;11.064;2022-07-05T05:17:35;1.13;;;0.73;;
18322;SDS011;9287;49.456;11.064;2022-07-05T05:20:05;0.88;;;0.80;;
18322;SDS011;9287;49.456;11.064;2022-07-05T05:22:34;4.35;;;0.80;;
18322;SDS011;9287;49.456;11.064;2022-07-05T05:25:02;3.58;;;1.02;;
18322;SDS011;9287;49.456;11.064;2022-07-05T05:27:30;2.60;;;1.00;;
18322;SDS011;9287;49.456;11.064;2022-07-05T05:29:58;3.33;;;0.90;;
18322;SDS011;9287;49.456;11.064;2022-07-05T05:32:25;3.90;;;0.90;;
18322;SDS011;9287;49.456;11.064;2022-07-05T05:34:54;1.10;;;1.00;;
18322;SDS011;9287;49.456;11.064;2022-07-05T05:37:22;1.65;;;0.85;;
18322;SDS011;9287;49.456;11.064;2022-07-05T05:39:50;0.80;;;0.80;;
18322;SDS011;9287;49.456;11.064;2022-07-05T05:42:18;2.60;;;0.90;;
18322;SDS011;9287;49.456;11.064;2022-07-05T05:44:45;2.22;;;0.90;;
18322;SDS011;9287;49.456;11.064;2022-07-05T05:47:13;2.30;;;0.88;;
18322;SDS011;9287;49.456;11.064;2022-07-05T05:49:42;2.10;;;0.80;;
18322;SDS011;9287;49.456;11.064;2022-07-05T05:52:12;4.47;;;0.82;;
18322;SDS011;9287;49.456;11.064;2022-07-05T05:54:39;2.63;;;1.08;;
18322;SDS011;9287;49.456;11.064;2022-07-05T05:57:07;1.65;;;0.90;;
18322;SDS011;9287;49.456;11.064;2022-07-05T05:59:35;4.97;;;1.25;;
18322;SDS011;9287;49.456;11.064;2022-07-05T06:02:03;1.88;;;0.90;;
18322;SDS011;9287;49.456;11.064;2022-07-05T06:04:31;3.45;;;1.13;;
18322;SDS011;9287;49.456;11.064;2022-07-05T06:06:59;2.75;;;0.82;;
18322;SDS011;9287;49.456;11.064;2022-07-05T06:09:28;1.52;;;1.08;;
18322;SDS011;9287;49.456;11.064;2022-07-05T06:11:56;1.38;;;1.00;;
18322;SDS011;9287;49.456;11.064;2022-07-05T06:14:24;3.72;;;1.20;;
18322;SDS011;9287;49.456;11.064;2022-07-05T06:16:51;3.22;;;1.00;;
18322;SDS011;9287;49.456;11.064;2022-07-05T06:19:19;2.25;;;0.90;;
18322;SDS011;9287;49.456;11.064;2022-07-05T06:21:47;3.40;;;0.95;;
18322;SDS011;9287;49.456;11.064;2022-07-05T06:24:24;2.67;;;0.98;;
18322;SDS011;9287;49.456;11.064;2022-07-05T06:26:54;1.73;;;0.70;;
18322;SDS011;9287;49.456;11.064;2022-07-05T06:29:21;5.95;;;0.70;;
18322;SDS011;9287;49.456;11.064;2022-07-05T06:31:49;1.75;;;0.73;;
18322;SDS011;9287;49.456;11.064;2022-07-05T06:34:19;1.23;;;0.70;;
18322;SDS011;9287;49.456;11.064;2022-07-05T06:36:46;0.90;;;0.80;;
18322;SDS011;9287;49.456;11.064;2022-07-05T06:39:14;4.68;;;1.10;;
18322;SDS011;9287;49.456;11.064;2022-07-05T06:41:42;2.13;;;0.80;;
18322;SDS011;9287;49.456;11.064;2022-07-05T06:44:11;1.85;;;0.70;;
18322;SDS011;9287;49.456;11.064;2022-07-05T06:46:59;0.98;;;0.70;;
18322;SDS011;9287;49.456;11.064;2022-07-05T06:49:27;2.20;;;1.10;;
18322;SDS011;9287;49.456;11.064;2022-07-05T06:51:55;2.63;;;0.70;;
18322;SDS011;9287;49.456;11.064;2022-07-05T06:54:22;2.05;;;0.90;;
18322;SDS011;9287;49.456;11.064;2022-07-05T06:57:10;5.90;;;0.90;;
18322;SDS011;9287;49.456;11.064;2022-07-05T06:59:59;2.60;;;0.85;;
18322;SDS011;9287;49.456;11.064;2022-07-05T07:02:29;2.80;;;0.80;;
18322;SDS011;9287;49.456;11.064;2022-07-05T07:04:57;4.50;;;0.82;;
18322;SDS011;9287;49.456;11.064;2022-07-05T07:07:42;4.35;;;0.98;;
18322;SDS011;9287;49.456;11.064;2022-07-05T07:10:33;4.68;;;0.90;;
18322;SDS011;9287;49.456;11.064;2022-07-05T07:13:01;2.85;;;0.60;;
18322;SDS011;9287;49.456;11.064;2022-07-05T07:15:31;2.25;;;0.80;;
18322;SDS011;9287;49.456;11.064;2022-07-05T07:17:59;0.70;;;0.70;;
18322;SDS011;9287;49.456;11.064;2022-07-05T07:20:27;2.83;;;0.90;;
18322;SDS011;9287;49.456;11.064;2022-07-05T07:22:55;1.00;;;0.60;;
18322;SDS011;9287;49.456;11.064;2022-07-05T07:25:23;1.08;;;0.70;;
18322;SDS011;9287;49.456;11.064;2022-07-05T07:27:53;1.67;;;0.60;;
18322;SDS011;9287;49.456;11.064;2022-07-05T07:30:22;2.53;;;0.70;;
18322;SDS011;9287;49.456;11.064;2022-07-05T07:32:53;1.35;;;0.70;;
18322;SDS011;9287;49.456;11.064;2022-07-05T07:35:21;1.67;;;0.75;;
18322;SDS011;9287;49.456;11.064;2022-07-05T07:37:49;1.40;;;0.80;;
18322;SDS011;9287;49.456;11.064;2022-07-05T07:40:17;2.47;;;0.70;;
18322;SDS011;9287;49.456;11.064;2022-07-05T07:42:45;1.38;;;0.50;;
18322;SDS011;9287;49.456;11.064;2022-07-05T07:45:13;5.65;;;0.60;;
18322;SDS011;9287;49.456;11.064;2022-07-05T07:47:40;1.88;;;0.60;;
18322;SDS011;9287;49.456;11.064;2022-07-05T07:50:10;2.67;;;0.40;;
18322;SDS011;9287;49.456;11.064;2022-07-05T07:52:38;1.30;;;0.50;;
18322;SDS011;9287;49.456;11.064;2022-07-05T07:55:06;1.88;;;0.70;;
18322;SDS011;9287;49.456;11.064;2022-07-05T07:57:35;2.72;;;0.50;;
18322;SDS011;9287;49.456;11.064;2022-07-05T08:00:03;0.60;;;0.50;;
18322;SDS011;9287;49.456;11.064;2022-07-05T08:02:32;0.93;;;0.40;;
18322;SDS011;9287;49.456;11.064;2022-07-05T08:05:00;1.55;;;0.40;;
18322;SDS011;9287;49.456;11.064;2022-07-05T08:07:29;1.42;;;0.40;;
18322;SDS011;9287;49.456;11.064;2022-07-05T08:09:58;0.40;;;0.30;;
18322;SDS011;9287;49.456;11.064;2022-07-05T08:12:26;3.95;;;0.40;;
18322;SDS011;9287;49.456;11.064;2022-07-05T08:14:54;2.58;;;0.50;;
18322;SDS011;9287;49.456;11.064;2022-07-05T08:17:22;0.52;;;0.35;;
18322;SDS011;9287;49.456;11.064;2022-07-05T08:19:49;1.48;;;0.40;;
18322;SDS011;9287;49.456;11.064;2022-07-05T08:22:36;1.25;;;0.57;;
18322;SDS011;9287;49.456;11.064;2022-07-05T08:25:04;2.65;;;0.50;;
18322;SDS011;9287;49.456;11.064;2022-07-05T08:27:33;1.02;;;0.50;;
18322;SDS011;9287;49.456;11.064;2022-07-05T08:30:01;1.55;;;0.30;;
18322;SDS011;9287;49.456;11.064;2022-07-05T08:32:29;2.13;;;0.40;;
18322;SDS011;9287;49.456;11.064;2022-07-05T08:34:57;2.47;;;0.40;;
18322;SDS011;9287;49.456;11.064;2022-07-05T08:37:25;1.40;;;0.40;;
18322;SDS011;9287;49.456;11.064;2022-07-05T08:39:55;2.67;;;0.40;;
18322;SDS011;9287;49.456;11.064;2022-07-05T08:42:22;0.50;;;0.30;;
18322;SDS011;9287;49.456;11.064;2022-07-05T08:44:50;0.63;;;0.20;;
18322;SDS011;9287;49.456;11.064;2022-07-05T08:47:19;0.40;;;0.20;;
18322;SDS011;9287;49.456;11.064;2022-07-05T08:49:48;5.07;;;0.40;;
18322;SDS011;9287;49.456;11.064;2022-07-05T08:52:19;0.88;;;0.30;;
18322;SDS011;9287;49.456;11.064;2022-07-05T08:54:48;0.40;;;0.30;;
18322;SDS011;9287;49.456;11.064;2022-07-05T08:57:23;0.68;;;0.20;;
18322;SDS011;9287;49.456;11.064;2022-07-05T08:59:51;0.65;;;0.32;;
18322;SDS011;9287;49.456;11.064;2022-07-05T09:02:19;1.70;;;0.40;;
18322;SDS011;9287;49.456;11.064;2022-07-05T09:04:48;2.22;;;0.30;;
18322;SDS011;9287;49.456;11.064;2022-07-05T09:07:19;0.40;;;0.30;;
18322;SDS011;9287;49.456;11.064;2022-07-05T09:09:48;0.25;;;0.20;;
18322;SDS011;9287;49.456;11.064;2022-07-05T09:12:18;0.57;;;0.20;;
18322;SDS011;9287;49.456;11.064;2022-07-05T09:14:51;0.43;;;0.20;;
18322;SDS011;9287;49.456;11.064;2022-07-05T09:17:21;0.95;;;0.30;;
18322;SDS011;9287;49.456;11.064;2022-07-05T09:20:06;0.22;;;0.20;;
18322;SDS011;9287;49.456;11.064;2022-07-05T09:22:42;2.35;;;0.38;;
18322;SDS011;9287;49.456;11.064;2022-07-05T09:25:18;0.60;;;0.40;;
18322;SDS011;9287;49.456;11.064;2022-07-05T09:27:48;0.63;;;0.20;;
18322;SDS011;9287;49.456;11.064;2022-07-05T09:30:25;2.42;;;0.45;;
18322;SDS011;9287;49.456;11.064;2022-07-05T09:33:01;0.63;;;0.50;;
18322;SDS011;9287;49.456;11.064;2022-07-05T09:35:36;0.30;;;0.20;;
18322;SDS011;9287;49.456;11.064;2022-07-05T09:38:06;0.77;;;0.25;;
18322;SDS011;9287;49.456;11.064;2022-07-05T09:40:46;1.95;;;0.30;;
18322;SDS011;9287;49.456;11.064;2022-07-05T09:43:15;1.85;;;0.30;;
18322;SDS011;9287;49.456;11.064;2022-07-05T09:45:56;0.30;;;0.30;;
18322;SDS011;9287;49.456;11.064;2022-07-05T09:48:25;2.72;;;0.32;;
18322;SDS011;9287;49.456;11.064;2022-07-05T09:51:06;0.77;;;0.52;;
18322;SDS011;9287;49.456;11.064;2022-07-05T09:53:56;0.60;;;0.30;;
18322;SDS011;9287;49.456;11.064;2022-07-05T09:56:28;0.20;;;0.20;;
18322;SDS011;9287;49.456;11.064;2022-07-05T09:59:11;1.25;;;0.35;;
18322;SDS011;9287;49.456;11.064;2022-07-05T10:01:42;0.75;;;0.45;;
18322;SDS011;9287;49.456;11.064;2022-07-05T10:04:10;1.60;;;0.40;;
18322;SDS011;9287;49.456;11.064;2022-07-05T10:06:38;0.57;;;0.40;;
18322;SDS011;9287;49.456;11.064;2022-07-05T10:09:06;2.80;;;0.50;;
18322;SDS011;9287;49.456;11.064;2022-07-05T10:11:38;2.05;;;0.40;;
18322;SDS011;9287;49.456;11.064;2022-07-05T10:14:09;3.35;;;0.45;;
18322;SDS011;9287;49.456;11.064;2022-07-05T10:16:39;0.93;;;0.30;;
18322;SDS011;9287;49.456;11.064;2022-07-05T10:19:12;1.85;;;0.50;;
18322;SDS011;9287;49.456;11.064;2022-07-05T10:21:45;0.85;;;0.50;;
18322;SDS011;9287;49.456;11.064;2022-07-05T10:24:34;1.52;;;0.50;;
18322;SDS011;9287;49.456;11.064;2022-07-05T10:27:05;1.92;;;0.35;;
18322;SDS011;9287;49.456;11.064;2022-07-05T10:29:34;0.75;;;0.30;;
18322;SDS011;9287;49.456;11.064;2022-07-05T10:32:02;0.40;;;0.30;;
18322;SDS011;9287;49.456;11.064;2022-07-05T10:34:34;0.38;;;0.35;;
18322;SDS011;9287;49.456;11.064;2022-07-05T10:37:21;1.92;;;0.40;;
18322;SDS011;9287;49.456;11.064;2022-07-05T10:39:52;0.40;;;0.40;;
18322;SDS011;9287;49.456;11.064;2022-07-05T10:42:20;1.77;;;0.50;;
18322;SDS011;9287;49.456;11.064;2022-07-05T10:44:49;0.50;;;0.40;;
18322;SDS011;9287;49.456;11.064;2022-07-05T10:47:17;1.80;;;0.40;;
18322;SDS011;9287;49.456;11.064;2022-07-05T10:50:00;0.68;;;0.38;;
18322;SDS011;9287;49.456;11.064;2022-07-05T10:52:31;2.28;;;0.65;;
18322;SDS011;9287;49.456;11.064;2022-07-05T10:55:18;2.30;;;0.90;;
18322;SDS011;9287;49.456;11.064;2022-07-05T11:07:02;0.88;;;0.50;;
18322;SDS011;9287;49.456;11.064;2022-07-05T11:09:30;0.98;;;0.50;;
18322;SDS011;9287;49.456;11.064;2022-07-05T11:12:02;2.42;;;0.60;;
18322;SDS011;9287;49.456;11.064;2022-07-05T11:14:53;1.65;;;0.90;;
18322;SDS011;9287;49.456;11.064;2022-07-05T11:17:31;1.80;;;0.57;;
18322;SDS011;9287;49.456;11.064;2022-07-05T11:20:27;1.98;;;1.27;;
18322;SDS011;9287;49.456;11.064;2022-07-05T11:23:04;1.50;;;0.50;;
18322;SDS011;9287;49.456;11.064;2022-07-05T11:25:37;0.70;;;0.30;;
18322;SDS011;9287;49.456;11.064;2022-07-05T11:28:07;2.60;;;0.40;;
18322;SDS011;9287;49.456;11.064;2022-07-05T11:30:55;1.42;;;1.15;;
18322;SDS011;9287;49.456;11.064;2022-07-05T11:33:34;0.60;;;0.50;;
18322;SDS011;9287;49.456;11.064;2022-07-05T11:36:04;1.70;;;0.77;;
18322;SDS011;9287;49.456;11.064;2022-07-05T11:38:36;1.92;;;0.40;;
18322;SDS011;9287;49.456;11.064;2022-07-05T11:41:41;2.58;;;0.50;;
18322;SDS011;9287;49.456;11.064;2022-07-05T11:44:10;1.15;;;0.40;;
18322;SDS011;9287;49.456;11.064;2022-07-05T11:46:38;0.70;;;0.50;;
18322;SDS011;9287;49.456;11.064;2022-07-05T11:49:20;0.40;;;0.40;;
18322;SDS011;9287;49.456;11.064;2022-07-05T11:51:58;0.60;;;0.60;;
18322;SDS011;9287;49.456;11.064;2022-07-05T11:54:30;1.80;;;0.60;;
18322;SDS011;9287;49.456;11.064;2022-07-05T11:56:59;1.95;;;1.50;;
18322;SDS011;9287;49.456;11.064;2022-07-05T11:59:28;3.25;;;0.65;;
18322;SDS011;9287;49.456;11.064;2022-07-05T12:01:55;1.05;;;0.70;;
18322;SDS011;9287;49.456;11.064;2022-07-05T12:04:24;1.25;;;0.60;;
18322;SDS011;9287;49.456;11.064;2022-07-05T12:06:53;0.82;;;0.40;;
18322;SDS011;9287;49.456;11.064;2022-07-05T12:09:23;2.13;;;0.40;;
18322;SDS011;9287;49.456;11.064;2022-07-05T12:11:56;0.60;;;0.32;;
18322;SDS011;9287;49.456;11.064;2022-07-05T12:14:48;0.93;;;0.40;;
18322;SDS011;9287;49.456;11.064;2022-07-05T12:17:17;0.88;;;0.50;;
18322;SDS011;9287;49.456;11.064;2022-07-05T12:19:51;1.88;;;0.50;;
18322;SDS011;9287;49.456;11.064;2022-07-05T12:22:30;2.55;;;0.43;;
18322;SDS011;9287;49.456;11.064;2022-07-05T12:24:59;2.03;;;0.70;;
18322;SDS011;9287;49.456;11.064;2022-07-05T12:27:30;0.50;;;0.40;;
18322;SDS011;9287;49.456;11.064;2022-07-05T12:30:00;0.52;;;0.52;;
18322;SDS011;9287;49.456;11.064;2022-07-05T12:32:30;1.48;;;0.80;;
18322;SDS011;9287;49.456;11.064;2022-07-05T12:35:00;2.17;;;0.60;;
18322;SDS011;9287;49.456;11.064;2022-07-05T12:37:32;0.52;;;0.40;;
18322;SDS011;9287;49.456;11.064;2022-07-05T12:40:02;0.55;;;0.50;;
18322;SDS011;9287;49.456;11.064;2022-07-05T12:42:33;0.52;;;0.52;;
18322;SDS011;9287;49.456;11.064;2022-07-05T12:45:09;1.75;;;1.65;;
18322;SDS011;9287;49.456;11.064;2022-07-05T12:47:47;3.75;;;0.52;;
18322;SDS011;9287;49.456;11.064;2022-07-05T12:50:15;1.30;;;0.50;;
18322;SDS011;9287;49.456;11.064;2022-07-05T12:53:00;0.50;;;0.50;;
18322;SDS011;9287;49.456;11.064;2022-07-05T12:56:00;1.55;;;0.40;;
18322;SDS011;9287;49.456;11.064;2022-07-05T12:58:48;1.67;;;0.68;;
18322;SDS011;9287;49.456;11.064;2022-07-05T13:01:21;0.90;;;0.40;;
18322;SDS011;9287;49.456;11.064;2022-07-05T13:04:03;1.15;;;0.82;;
18322;SDS011;9287;49.456;11.064;2022-07-05T13:09:31;1.50;;;0.60;;
18322;SDS011;9287;49.456;11.064;2022-07-05T13:12:07;0.50;;;0.40;;
18322;SDS011;9287;49.456;11.064;2022-07-05T13:14:38;0.98;;;0.50;;
18322;SDS011;9287;49.456;11.064;2022-07-05T13:17:07;0.50;;;0.50;;
18322;SDS011;9287;49.456;11.064;2022-07-05T13:19:38;0.45;;;0.40;;
18322;SDS011;9287;49.456;11.064;2022-07-05T13:22:07;0.38;;;0.38;;
18322;SDS011;9287;49.456;11.064;2022-07-05T13:24:35;2.60;;;0.40;;
18322;SDS011;9287;49.456;11.064;2022-07-05T13:27:03;5.40;;;0.60;;
18322;SDS011;9287;49.456;11.064;2022-07-05T13:29:32;0.40;;;0.30;;
18322;SDS011;9287;49.456;11.064;2022-07-05T13:32:02;2.40;;;0.40;;
18322;SDS011;9287;49.456;11.064;2022-07-05T13:34:31;1.40;;;0.38;;
18322;SDS011;9287;49.456;11.064;2022-07-05T13:36:59;1.65;;;0.50;;
18322;SDS011;9287;49.456;11.064;2022-07-05T13:39:28;0.43;;;0.40;;
18322;SDS011;9287;49.456;11.064;2022-07-05T13:41:56;1.20;;;0.40;;
18322;SDS011;9287;49.456;11.064;2022-07-05T13:44:25;0.57;;;0.40;;
18322;SDS011;9287;49.456;11.064;2022-07-05T13:46:53;2.42;;;0.50;;
18322;SDS011;9287;49.456;11.064;2022-07-05T13:49:22;2.67;;;0.40;;
18322;SDS011;9287;49.456;11.064;2022-07-05T13:51:50;2.22;;;0.50;;
18322;SDS011;9287;49.456;11.064;2022-07-05T13:54:18;0.40;;;0.40;;
18322;SDS011;9287;49.456;11.064;2022-07-05T13:56:45;2.70;;;0.40;;
18322;SDS011;9287;49.456;11.064;2022-07-05T13:59:18;3.50;;;0.55;;
18322;SDS011;9287;49.456;11.064;2022-07-05T14:01:46;1.70;;;0.70;;
18322;SDS011;9287;49.456;11.064;2022-07-05T14:04:14;1.50;;;0.50;;
18322;SDS011;9287;49.456;11.064;2022-07-05T14:06:44;0.82;;;0.40;;
18322;SDS011;9287;49.456;11.064;2022-07-05T14:09:12;0.57;;;0.40;;
18322;SDS011;9287;49.456;11.064;2022-07-05T14:11:40;0.40;;;0.40;;
18322;SDS011;9287;49.456;11.064;2022-07-05T14:14:08;0.63;;;0.47;;
18322;SDS011;9287;49.456;11.064;2022-07-05T14:16:39;0.82;;;0.40;;
18322;SDS011;9287;49.456;11.064;2022-07-05T14:19:07;0.60;;;0.50;;
18322;SDS011;9287;49.456;11.064;2022-07-05T14:21:35;0.30;;;0.30;;
18322;SDS011;9287;49.456;11.064;2022-07-05T14:24:05;0.82;;;0.50;;
18322;SDS011;9287;49.456;11.064;2022-07-05T14:26:33;1.08;;;0.50;;
18322;SDS011;9287;49.456;11.064;2022-07-05T14:29:01;0.65;;;0.40;;
18322;SDS011;9287;49.456;11.064;2022-07-05T14:31:29;0.70;;;0.50;;
18322;SDS011;9287;49.456;11.064;2022-07-05T14:33:59;0.43;;;0.43;;
18322;SDS011;9287;49.456;11.064;2022-07-05T14:36:27;0.40;;;0.40;;
18322;SDS011;9287;49.456;11.064;2022-07-05T14:38:54;1.80;;;0.47;;
18322;SDS011;9287;49.456;11.064;2022-07-05T14:41:24;4.38;;;0.50;;
18322;SDS011;9287;49.456;11.064;2022-07-05T14:43:51;2.03;;;0.73;;
18322;SDS011;9287;49.456;11.064;2022-07-05T14:46:20;1.27;;;0.40;;
18322;SDS011;9287;49.456;11.064;2022-07-05T14:48:48;0.73;;;0.50;;
18322;SDS011;9287;49.456;11.064;2022-07-05T14:51:16;2.08;;;0.40;;
18322;SDS011;9287;49.456;11.064;2022-07-05T14:53:45;1.00;;;0.50;;
18322;SDS011;9287;49.456;11.064;2022-07-05T14:56:14;1.77;;;0.60;;
18322;SDS011;9287;49.456;11.064;2022-07-05T14:58:44;0.50;;;0.50;;
18322;SDS011;9287;49.456;11.064;2022-07-05T15:01:11;0.63;;;0.40;;
18322;SDS011;9287;49.456;11.064;2022-07-05T15:03:39;1.48;;;0.40;;
18322;SDS011;9287;49.456;11.064;2022-07-05T15:06:08;0.50;;;0.40;;
18322;SDS011;9287;49.456;11.064;2022-07-05T15:08:36;0.65;;;0.30;;
18322;SDS011;9287;49.456;11.064;2022-07-05T15:11:04;2.15;;;0.50;;
18322;SDS011;9287;49.456;11.064;2022-07-05T15:13:32;0.93;;;0.40;;
18322;SDS011;9287;49.456;11.064;2022-07-05T15:16:02;2.78;;;0.70;;
18322;SDS011;9287;49.456;11.064;2022-07-05T15:18:32;1.33;;;0.50;;
18322;SDS011;9287;49.456;11.064;2022-07-05T15:21:00;1.30;;;0.43;;
18322;SDS011;9287;49.456;11.064;2022-07-05T15:23:30;1.05;;;0.50;;